»·PEaware :: AAL713 KLAX-KDFW

AAL713 :: KLAX-KDFW

FLIGHT INFORMATION

Flight Status: Arrived
Operator:
American Airlines
More flights by this operator :: More flights under this callsign
Pilot: Kyle Kaplan (11122)
Aircraft: BOEING 777-200
(B772)
More flights by this aircraft type
Origin: KLAX Los Angeles Intl
United States
Destination: KDFW Dallas-Ft Worth Intl
United States
More flights between these airports :: More routes between these airports
Route: HOLTZ1 TRM BLH J169 TFD J50 SSO J4 INK GEEKY BOOVE4
File this flight plan on PilotEdge
Remarks:
Altitude:
(Current/Filed)
37,000ft
Speed:
(Current/Filed)
469kts
Departed: 18-Jun-16 01:12 PM
Arrived: 18-Jun-16 04:13 PM
Distance/Time
Traveled:
1070nm/3:01
Distance/Time
To Go:
Arrived

Flight Plot

Page will automatically refresh every two minutes.


Map Options




Map Legend


Flown Route
Filed Route
Departure Airport
Arrival Airport
Navaid (VOR, NDB)
Fix

Horizontal Profiles

Position Reports

Time Latitude Longitude Heading Altitude Ground
Speed
18-Jun-16 12:46 33.939673 -118.406551 350 133ft 0kts
18-Jun-16 12:47 33.939673 -118.406551 350 133ft 0kts
18-Jun-16 12:48 33.939673 -118.406551 350 133ft 0kts
18-Jun-16 12:49 33.939673 -118.406551 350 133ft 0kts
18-Jun-16 12:50 33.939673 -118.406551 350 133ft 0kts
18-Jun-16 12:51 33.939673 -118.406551 350 133ft 0kts
18-Jun-16 12:52 33.939673 -118.406551 350 133ft 0kts
18-Jun-16 12:53 33.939673 -118.406551 350 133ft 0kts
18-Jun-16 12:54 33.939673 -118.406551 350 133ft 0kts
18-Jun-16 12:55 33.939673 -118.406551 350 133ft 0kts
18-Jun-16 12:56 33.939673 -118.406551 350 133ft 0kts
18-Jun-16 12:57 33.939355 -118.406513 358 133ft 2kts
18-Jun-16 12:58 33.938930 -118.406790 77 135ft 0kts
18-Jun-16 12:59 33.938930 -118.406790 77 135ft 0kts
18-Jun-16 13:00 33.938930 -118.406790 77 135ft 0kts
18-Jun-16 13:01 33.938930 -118.406790 77 135ft 0kts
18-Jun-16 13:02 33.938930 -118.406790 77 135ft 0kts
18-Jun-16 13:03 33.939207 -118.403980 84 132ft 29kts
18-Jun-16 13:04 33.939915 -118.397090 82 122ft 29kts
18-Jun-16 13:05 33.940484 -118.391010 85 114ft 27kts
18-Jun-16 13:06 33.940983 -118.385765 83 112ft 21kts
18-Jun-16 13:07 33.940655 -118.382367 89 109ft 14kts
18-Jun-16 13:08 33.939768 -118.380641 260 109ft 10kts
18-Jun-16 13:09 33.937183 -118.405090 262 278ft 178kts
18-Jun-16 13:10 33.927721 -118.456579 231 2680ft 204kts
18-Jun-16 13:11 33.891350 -118.510895 231 5842ft 241kts
18-Jun-16 13:12 33.837347 -118.556349 177 8840ft 279kts
18-Jun-16 13:13 33.760655 -118.537452 172 10498ft 342kts
18-Jun-16 13:14 33.685141 -118.481276 125 13231ft 381kts
18-Jun-16 13:15 33.655506 -118.380581 113 15411ft 402kts
18-Jun-16 13:16 33.644828 -118.267792 94 16991ft 423kts
18-Jun-16 13:17 33.644741 -118.156109 94 19226ft 436kts
18-Jun-16 13:18 33.644601 -118.044625 94 21455ft 454kts
18-Jun-16 13:19 33.644374 -117.930762 94 23064ft 466kts
18-Jun-16 13:20 33.643943 -117.793217 94 23836ft 478kts
18-Jun-16 13:21 33.643438 -117.666877 94 26310ft 487kts
18-Jun-16 13:22 33.642913 -117.564361 94 27929ft 501kts
18-Jun-16 13:23 33.642262 -117.455000 94 29674ft 513kts
18-Jun-16 13:24 33.641541 -117.349994 95 31240ft 525kts
18-Jun-16 13:25 33.641071 -117.239892 95 32664ft 539kts
18-Jun-16 13:26 33.640113 -117.117977 95 34052ft 554kts
18-Jun-16 13:27 33.638829 -116.983110 95 35897ft 559kts
18-Jun-16 13:28 33.637375 -116.847606 95 37006ft 555kts
18-Jun-16 13:29 33.635720 -116.708884 95 37031ft 548kts
18-Jun-16 13:30 33.634321 -116.600490 95 37028ft 544kts
18-Jun-16 13:31 33.632732 -116.484275 95 37008ft 544kts
18-Jun-16 13:32 33.631065 -116.370720 95 36988ft 543kts
18-Jun-16 13:33 33.629660 -116.257838 95 36978ft 541kts
18-Jun-16 13:34 33.627792 -116.138094 95 36973ft 541kts
18-Jun-16 13:35 33.625512 -116.014329 95 36973ft 544kts
18-Jun-16 13:36 33.623076 -115.889056 95 36974ft 546kts
18-Jun-16 13:37 33.619883 -115.732786 95 36975ft 546kts
18-Jun-16 13:38 33.616083 -115.559436 95 36976ft 546kts
18-Jun-16 13:39 33.612004 -115.384577 95 36984ft 545kts
18-Jun-16 13:40 33.608220 -115.215128 95 37005ft 546kts
18-Jun-16 13:41 33.603960 -115.047565 94 37017ft 550kts
18-Jun-16 13:42 33.599722 -114.892353 94 37019ft 549kts
18-Jun-16 13:43 33.594709 -114.736571 98 37017ft 548kts
18-Jun-16 13:44 33.578345 -114.563324 99 37021ft 547kts
18-Jun-16 13:45 33.562654 -114.391051 99 37023ft 547kts
18-Jun-16 13:46 33.549127 -114.239908 99 37017ft 547kts
18-Jun-16 13:47 33.534307 -114.080096 99 37016ft 546kts
18-Jun-16 13:48 33.519089 -113.919455 99 37019ft 546kts
18-Jun-16 13:49 33.503690 -113.759236 99 37020ft 547kts
18-Jun-16 13:50 33.488238 -113.600627 99 37036ft 549kts
18-Jun-16 13:51 33.471979 -113.436331 99 37048ft 545kts
18-Jun-16 13:52 33.440168 -113.292138 117 37052ft 532kts
18-Jun-16 13:53 33.386796 -113.153932 118 37044ft 531kts
18-Jun-16 13:54 33.333615 -113.019481 118 37044ft 531kts
18-Jun-16 13:55 33.273153 -112.867569 118 37045ft 531kts
18-Jun-16 13:56 33.212423 -112.715680 118 37045ft 531kts
18-Jun-16 13:57 33.153583 -112.569156 118 37046ft 531kts
18-Jun-16 13:58 33.096926 -112.428657 118 37050ft 532kts
18-Jun-16 13:59 33.045270 -112.300512 118 37050ft 531kts
18-Jun-16 14:00 32.991339 -112.166933 118 37027ft 518kts
18-Jun-16 14:01 32.936842 -112.033274 118 36992ft 499kts
18-Jun-16 14:02 32.887793 -111.910834 113 36998ft 504kts
18-Jun-16 14:03 32.856951 -111.778497 107 37002ft 505kts
18-Jun-16 14:04 32.827686 -111.647576 107 37003ft 505kts
18-Jun-16 14:05 32.797932 -111.515075 107 37023ft 517kts
18-Jun-16 14:06 32.766784 -111.377174 106 37065ft 534kts
18-Jun-16 14:07 32.736784 -111.243267 106 37071ft 532kts
18-Jun-16 14:08 32.706320 -111.109203 106 37073ft 529kts
18-Jun-16 14:09 32.676560 -110.979283 106 37073ft 529kts
18-Jun-16 14:10 32.645040 -110.842563 106 37076ft 529kts
18-Jun-16 14:11 32.616738 -110.720438 106 37106ft 528kts
18-Jun-16 14:12 32.587887 -110.596557 106 37129ft 528kts
18-Jun-16 14:13 32.557966 -110.468749 106 37129ft 530kts
18-Jun-16 14:14 32.527710 -110.340147 107 37131ft 529kts
18-Jun-16 14:15 32.496216 -110.204972 107 37140ft 529kts
18-Jun-16 14:16 32.465823 -110.076853 107 37145ft 529kts
18-Jun-16 14:17 32.434616 -109.946186 107 37145ft 529kts
18-Jun-16 14:18 32.402866 -109.813939 107 37146ft 529kts
18-Jun-16 14:19 32.367359 -109.666829 107 37146ft 529kts
18-Jun-16 14:20 32.333993 -109.529337 107 37146ft 529kts
18-Jun-16 14:21 32.298767 -109.384944 107 37162ft 527kts
18-Jun-16 14:22 32.266120 -109.227811 97 37213ft 532kts
18-Jun-16 14:23 32.250226 -109.061612 97 37218ft 533kts
18-Jun-16 14:24 32.233374 -108.887917 97 37218ft 532kts
18-Jun-16 14:25 32.216899 -108.720418 97 37250ft 535kts
18-Jun-16 14:26 32.202334 -108.575975 95 37222ft 540kts
18-Jun-16 14:27 32.182777 -108.380505 94 37252ft 516kts
18-Jun-16 14:28 32.169238 -108.244054 95 37301ft 518kts
18-Jun-16 14:29 32.151863 -108.074962 95 37258ft 519kts
18-Jun-16 14:30 32.134111 -107.905636 95 37221ft 520kts
18-Jun-16 14:31 32.116128 -107.736386 95 37220ft 520kts
18-Jun-16 14:32 32.098015 -107.568083 95 37220ft 520kts
18-Jun-16 14:33 32.079689 -107.399941 95 37223ft 520kts
18-Jun-16 14:34 32.062327 -107.238877 95 37231ft 520kts
18-Jun-16 14:35 32.044810 -107.080896 95 37231ft 520kts
18-Jun-16 14:36 32.027247 -106.925247 95 37230ft 520kts
18-Jun-16 14:37 32.009937 -106.773590 95 37229ft 520kts
18-Jun-16 14:38 31.992560 -106.622970 95 37195ft 519kts
18-Jun-16 14:39 31.974731 -106.470068 95 37174ft 518kts
18-Jun-16 14:40 31.957075 -106.319780 95 37174ft 517kts
18-Jun-16 14:41 31.950082 -106.155750 89 37149ft 519kts
18-Jun-16 14:42 31.947300 -105.991957 89 37149ft 519kts
18-Jun-16 14:43 31.944316 -105.828731 89 37148ft 519kts
18-Jun-16 14:44 31.941135 -105.665973 89 37148ft 519kts
18-Jun-16 14:45 31.937771 -105.504432 89 37145ft 517kts
18-Jun-16 14:46 31.934280 -105.346113 89 37147ft 516kts
18-Jun-16 14:47 31.931332 -105.187313 89 37132ft 518kts
18-Jun-16 14:48 31.927723 -105.025857 89 37121ft 516kts
18-Jun-16 14:49 31.923791 -104.861153 89 37121ft 515kts
18-Jun-16 14:50 31.919553 -104.693707 88 37121ft 512kts
18-Jun-16 14:51 31.915180 -104.528257 88 37122ft 510kts
18-Jun-16 14:52 31.910579 -104.362343 88 37121ft 509kts
18-Jun-16 14:53 31.906284 -104.198081 88 37124ft 509kts
18-Jun-16 14:54 31.901342 -104.033340 88 37124ft 509kts
18-Jun-16 14:55 31.896198 -103.870715 88 37112ft 509kts
18-Jun-16 14:56 31.890778 -103.706065 88 37093ft 508kts
18-Jun-16 14:57 31.885140 -103.541286 88 37086ft 508kts
18-Jun-16 14:58 31.879406 -103.379796 88 37084ft 505kts
18-Jun-16 14:59 31.878256 -103.217798 78 37092ft 503kts
18-Jun-16 15:00 31.899976 -103.055483 77 37088ft 503kts
18-Jun-16 15:01 31.921269 -102.893440 77 37095ft 502kts
18-Jun-16 15:02 31.942336 -102.731580 77 37125ft 502kts
18-Jun-16 15:03 31.963133 -102.570167 77 37131ft 502kts
18-Jun-16 15:04 31.983701 -102.408866 77 37129ft 502kts
18-Jun-16 15:05 32.004066 -102.250462 78 37126ft 502kts
18-Jun-16 15:06 32.023910 -102.092628 78 37124ft 502kts
18-Jun-16 15:07 32.043307 -101.935795 78 37126ft 501kts
18-Jun-16 15:08 32.061997 -101.783039 78 37137ft 499kts
18-Jun-16 15:09 32.080220 -101.632628 78 37140ft 497kts
18-Jun-16 15:10 32.098079 -101.483739 78 37138ft 495kts
18-Jun-16 15:11 32.115002 -101.341259 79 37147ft 501kts
18-Jun-16 15:12 32.132193 -101.198763 79 37149ft 504kts
18-Jun-16 15:13 32.148940 -101.055235 79 37149ft 504kts
18-Jun-16 15:14 32.165801 -100.908865 79 37152ft 503kts
18-Jun-16 15:15 32.182650 -100.761057 79 37157ft 502kts
18-Jun-16 15:16 32.199272 -100.613674 79 37156ft 502kts
18-Jun-16 15:17 32.215961 -100.464089 79 37156ft 502kts
18-Jun-16 15:18 32.232260 -100.317007 79 37158ft 502kts
18-Jun-16 15:19 32.248304 -100.173825 80 37129ft 502kts
18-Jun-16 15:20 32.260323 -100.062970 80 37101ft 500kts
18-Jun-16 15:21 32.274638 -99.929450 80 37102ft 499kts
18-Jun-16 15:22 32.284740 -99.784818 83 37104ft 504kts
18-Jun-16 15:23 32.292685 -99.634081 83 37115ft 504kts
18-Jun-16 15:24 32.300200 -99.487487 83 37118ft 504kts
18-Jun-16 15:25 32.307474 -99.342227 84 37117ft 504kts
18-Jun-16 15:26 32.314598 -99.205784 84 37101ft 504kts
18-Jun-16 15:27 32.321206 -99.068967 84 37084ft 500kts
18-Jun-16 15:28 32.327902 -98.926600 84 37072ft 501kts
18-Jun-16 15:29 32.334149 -98.790921 83 35701ft 469kts
18-Jun-16 15:30 32.339909 -98.663694 83 34505ft 431kts
18-Jun-16 15:31 32.345070 -98.548283 83 33404ft 426kts
18-Jun-16 15:32 32.350241 -98.429390 83 31569ft 429kts
18-Jun-16 15:33 32.354814 -98.322127 83 30050ft 430kts
18-Jun-16 15:34 32.359559 -98.214105 82 28540ft 426kts
18-Jun-16 15:35 32.364167 -98.100307 82 26943ft 411kts
18-Jun-16 15:36 32.368148 -97.999295 82 25511ft 405kts
18-Jun-16 15:37 32.371652 -97.908252 82 24212ft 398kts
18-Jun-16 15:38 32.374977 -97.822961 82 23015ft 392kts
18-Jun-16 15:39 32.378267 -97.737049 82 21821ft 386kts
18-Jun-16 15:40 32.382858 -97.652795 73 20635ft 375kts
18-Jun-16 15:41 32.414076 -97.590542 41 19559ft 355kts
18-Jun-16 15:42 32.455862 -97.541525 41 18576ft 351kts
18-Jun-16 15:43 32.496698 -97.494545 41 17577ft 336kts
18-Jun-16 15:44 32.534416 -97.451369 40 16703ft 330kts
18-Jun-16 15:45 32.569771 -97.410892 40 15886ft 327kts
18-Jun-16 15:46 32.604604 -97.370958 40 15065ft 314kts
18-Jun-16 15:47 32.636709 -97.334219 40 14327ft 301kts
18-Jun-16 15:48 32.668456 -97.298116 41 13610ft 293kts
18-Jun-16 15:49 32.698224 -97.263973 41 12908ft 282kts
18-Jun-16 15:50 32.726617 -97.231322 40 12249ft 270kts
18-Jun-16 15:51 32.755563 -97.198017 41 11587ft 258kts
18-Jun-16 15:52 32.783625 -97.171383 16 11016ft 245kts
18-Jun-16 15:53 32.819772 -97.168289 4 10419ft 246kts
18-Jun-16 15:54 32.856243 -97.167082 3 9580ft 244kts
18-Jun-16 15:55 32.893576 -97.166420 3 8720ft 243kts
18-Jun-16 15:56 32.936041 -97.165855 2 7735ft 243kts
18-Jun-16 15:57 32.981476 -97.165318 3 6675ft 243kts
18-Jun-16 15:58 33.028668 -97.164797 3 5815ft 234kts
18-Jun-16 15:59 33.069805 -97.164327 3 5153ft 222kts
18-Jun-16 16:00 33.106554 -97.163466 14 4556ft 207kts
18-Jun-16 16:01 33.125502 -97.132885 101 4187ft 204kts
18-Jun-16 16:02 33.104313 -97.108050 150 3787ft 208kts
18-Jun-16 16:03 33.076835 -97.090223 148 3327ft 201kts
18-Jun-16 16:04 33.053495 -97.067154 130 3014ft 197kts
18-Jun-16 16:05 33.021946 -97.054659 178 2789ft 202kts
18-Jun-16 16:06 32.984758 -97.054336 178 2001ft 177kts
18-Jun-16 16:07 32.952232 -97.054453 178 1349ft 154kts
18-Jun-16 16:08 32.923741 -97.054600 178 810ft 154kts
18-Jun-16 16:09 32.900331 -97.054717 179 626ft 64kts
18-Jun-16 16:10 32.895216 -97.053681 151 612ft 21kts
18-Jun-16 16:11 32.894056 -97.052412 90 608ft 0kts
18-Jun-16 16:12 32.894029 -97.051650 92 607ft 20kts
18-Jun-16 16:13 32.894987 -97.048965 359 608ft 15kts
18-Jun-16 16:14 32.899616 -97.048927 0 618ft 19kts
18-Jun-16 16:15 32.903864 -97.048917 0 619ft 22kts
18-Jun-16 16:16 32.908161 -97.048891 0 609ft 9kts
18-Jun-16 16:17 32.909118 -97.046220 90 603ft 31kts
18-Jun-16 16:18 32.909097 -97.040393 90 601ft 14kts
18-Jun-16 16:19 32.909076 -97.036340 90 599ft 18kts
18-Jun-16 16:20 32.908464 -97.033243 168 595ft 12kts
18-Jun-16 16:21 32.905948 -97.033191 184 596ft 13kts
18-Jun-16 16:22 32.903659 -97.034378 216 597ft 8kts
18-Jun-16 16:23 32.903882 -97.035248 310 599ft 0kts
18-Jun-16 16:24 32.903882 -97.035248 310 599ft 0kts

Navigation Log

Ident Type
1. KLAX Airport
2. PEVEE Fix
3. HOLTZ Fix
4. TRM Navaid
5. BLH Navaid
6. SALOM Fix
7. KOFFA Fix
8. TFD Navaid
9. TOTEC Fix
10. ITEMM Fix
11. SSO Navaid
12. EWM Navaid
13. CONNE Fix
14. INK Navaid
15. KDFW Airport